createdAt,value
2022-11-20T00:01:53.149Z,-4.67
2022-11-20T00:04:21.892Z,-4.67
2022-11-20T00:06:50.664Z,-4.73
2022-11-20T00:09:19.590Z,-4.76
2022-11-20T00:11:48.514Z,-4.76
2022-11-20T00:14:17.755Z,-4.74
2022-11-20T00:16:47.023Z,-4.76
2022-11-20T00:19:16.570Z,-4.74
2022-11-20T00:21:48.095Z,-4.72
2022-11-20T00:24:17.027Z,-4.69
2022-11-20T00:26:53.214Z,-4.67
2022-11-20T00:29:23.369Z,-4.62
2022-11-20T00:31:52.305Z,-4.60
2022-11-20T00:34:20.960Z,-4.56
2022-11-20T00:36:49.588Z,-4.53
2022-11-20T00:39:18.808Z,-4.49
2022-11-20T00:41:48.192Z,-4.45
2022-11-20T00:44:16.836Z,-4.44
2022-11-20T00:46:46.028Z,-4.34
2022-11-20T00:49:14.640Z,-4.35
2022-11-20T00:51:43.712Z,-4.31
2022-11-20T00:54:12.427Z,-4.27
2022-11-20T00:56:41.012Z,-4.22
2022-11-20T00:59:11.694Z,-4.22
2022-11-20T01:01:40.441Z,-4.19
2022-11-20T01:04:09.240Z,-4.18
2022-11-20T01:06:39.455Z,-4.17
2022-11-20T01:09:12.326Z,-4.13
2022-11-20T01:11:43.085Z,-4.13
2022-11-20T01:14:14.519Z,-4.11
2022-11-20T01:16:46.643Z,-4.13
2022-11-20T01:19:18.077Z,-4.13
2022-11-20T01:21:49.393Z,-4.14
2022-11-20T01:24:20.517Z,-4.13
2022-11-20T01:26:50.479Z,-4.10
2022-11-20T01:29:21.430Z,-4.13
2022-11-20T01:31:51.923Z,-4.13
2022-11-20T01:34:22.640Z,-4.14
2022-11-20T01:36:53.192Z,-4.13
2022-11-20T01:39:24.719Z,-4.13
2022-11-20T01:42:13.178Z,-4.15
2022-11-20T01:44:57.090Z,-4.14
2022-11-20T01:47:33.272Z,-4.18
2022-11-20T01:50:07.832Z,-4.15
2022-11-20T01:52:41.937Z,-4.17
2022-11-20T01:55:15.832Z,-4.15
2022-11-20T01:57:46.466Z,-4.14
2022-11-20T02:00:18.931Z,-4.10
2022-11-20T02:02:57.068Z,-4.10
2022-11-20T02:05:29.495Z,-4.06
2022-11-20T02:08:00.154Z,-4.04
2022-11-20T02:10:31.363Z,-4.03
2022-11-20T02:13:20.247Z,-4.01
2022-11-20T02:15:51.739Z,-4.01
2022-11-20T02:18:22.848Z,-4.00
2022-11-20T02:20:59.945Z,-3.99
2022-11-20T02:23:37.933Z,-3.99
2022-11-20T02:26:12.156Z,-3.96
2022-11-20T02:28:41.522Z,-3.93
2022-11-20T02:31:10.272Z,-3.94
2022-11-20T02:33:39.255Z,-3.93
2022-11-20T02:36:12.323Z,-3.91
2022-11-20T02:38:40.978Z,-3.90
2022-11-20T02:41:10.112Z,-3.91
2022-11-20T02:43:44.507Z,-3.90
2022-11-20T02:46:15.216Z,-3.90
2022-11-20T02:48:46.770Z,-3.89
2022-11-20T02:51:19.534Z,-3.87
2022-11-20T02:53:48.602Z,-3.87
2022-11-20T02:56:17.493Z,-3.86
2022-11-20T02:58:47.939Z,-3.86
2022-11-20T03:01:16.521Z,-3.86
2022-11-20T03:03:48.979Z,-3.90
2022-11-20T03:06:20.326Z,-3.90
2022-11-20T03:08:48.952Z,-3.93
2022-11-20T03:11:17.687Z,-3.94
2022-11-20T03:13:47.709Z,-3.96
2022-11-20T03:16:19.052Z,-3.99
2022-11-20T03:18:48.972Z,-4.00
2022-11-20T03:21:17.864Z,-4.04
2022-11-20T03:23:47.102Z,-4.10
2022-11-20T03:26:17.421Z,-4.13
2022-11-20T03:28:50.170Z,-4.21
2022-11-20T03:31:21.098Z,-4.22
2022-11-20T03:33:49.739Z,-4.28
2022-11-20T03:36:21.197Z,-4.29
2022-11-20T03:38:50.242Z,-4.38
2022-11-20T03:41:22.586Z,-4.44
2022-11-20T03:43:52.666Z,-4.42
2022-11-20T03:46:21.777Z,-4.48
2022-11-20T03:48:52.194Z,-4.49
2022-11-20T03:51:22.737Z,-4.55
2022-11-20T03:53:53.421Z,-4.57
2022-11-20T03:56:29.599Z,-4.60
2022-11-20T03:58:59.091Z,-4.63
2022-11-20T04:01:31.182Z,-4.69
2022-11-20T04:04:01.044Z,-4.73
2022-11-20T04:06:35.276Z,-4.76
2022-11-20T04:09:03.103Z,-4.83
2022-11-20T04:11:34.095Z,-4.84
2022-11-20T04:14:05.039Z,-4.88
2022-11-20T04:16:37.231Z,-4.92
2022-11-20T04:19:11.108Z,-5.00
2022-11-20T04:21:39.706Z,-5.04
2022-11-20T04:24:09.127Z,-5.05
2022-11-20T04:26:40.714Z,-5.11
2022-11-20T04:29:12.735Z,-5.11
2022-11-20T04:31:42.534Z,-5.14
2022-11-20T04:34:13.896Z,-5.15
2022-11-20T04:36:43.207Z,-5.19
2022-11-20T04:39:15.971Z,-5.19
2022-11-20T04:41:45.563Z,-5.25
2022-11-20T04:44:14.569Z,-5.27
2022-11-20T04:47:06.336Z,-5.28
2022-11-20T04:49:36.264Z,-5.32
2022-11-20T04:52:05.353Z,-5.38
2022-11-20T04:54:36.042Z,-5.36
2022-11-20T04:57:07.866Z,-5.42
2022-11-20T04:59:39.258Z,-5.43
2022-11-20T05:02:08.315Z,-5.45
2022-11-20T05:04:37.546Z,-5.47
2022-11-20T05:07:12.431Z,-5.52
2022-11-20T05:09:41.700Z,-5.53
2022-11-20T05:12:11.416Z,-5.56
2022-11-20T05:14:40.284Z,-5.60
2022-11-20T05:17:16.650Z,-5.60
2022-11-20T05:19:52.889Z,-5.68
2022-11-20T05:22:22.649Z,-5.71
2022-11-20T05:24:51.435Z,-5.74
2022-11-20T05:27:20.307Z,-5.74
2022-11-20T05:29:49.291Z,-5.78
2022-11-20T05:32:17.979Z,-5.80
2022-11-20T05:34:46.859Z,-5.83
2022-11-20T05:37:15.532Z,-5.85
2022-11-20T05:39:45.851Z,-5.88
2022-11-20T05:42:31.254Z,-5.90
2022-11-20T05:45:01.264Z,-5.92
2022-11-20T05:47:33.926Z,-5.94
2022-11-20T05:50:03.343Z,-5.98
2022-11-20T05:52:32.695Z,-5.99
2022-11-20T05:55:07.101Z,-6.03
2022-11-20T05:57:36.522Z,-6.06
2022-11-20T06:00:08.168Z,-6.06
2022-11-20T06:02:37.349Z,-6.09
2022-11-20T06:05:07.678Z,-6.11
2022-11-20T06:07:36.383Z,-6.11
2022-11-20T06:10:07.177Z,-6.11
2022-11-20T06:12:35.987Z,-6.11
2022-11-20T06:15:07.790Z,-6.12
2022-11-20T06:17:36.617Z,-6.12
2022-11-20T06:20:09.664Z,-6.09
2022-11-20T06:22:38.715Z,-6.09
2022-11-20T06:25:09.052Z,-6.05
2022-11-20T06:27:37.856Z,-6.06
2022-11-20T06:30:12.804Z,-6.02
2022-11-20T06:32:41.631Z,-6.03
2022-11-20T06:35:13.523Z,-5.99
2022-11-20T06:37:43.305Z,-5.98
2022-11-20T06:40:15.395Z,-5.97
2022-11-20T06:42:44.144Z,-5.97
2022-11-20T06:45:13.122Z,-5.94
2022-11-20T06:47:42.973Z,-5.94
2022-11-20T06:50:12.946Z,-5.90
2022-11-20T06:52:43.748Z,-5.85
2022-11-20T06:55:12.719Z,-5.84
2022-11-20T06:57:43.763Z,-5.83
2022-11-20T07:00:16.398Z,-5.80
2022-11-20T07:02:45.280Z,-5.78
2022-11-20T07:05:14.358Z,-5.74
2022-11-20T07:07:47.146Z,-5.71
2022-11-20T07:10:16.203Z,-5.66
2022-11-20T07:12:52.051Z,-5.63
2022-11-20T07:15:24.771Z,-5.57
2022-11-20T07:17:57.122Z,-5.52
2022-11-20T07:20:28.685Z,-5.46
2022-11-20T07:22:58.319Z,-5.42
2022-11-20T07:25:31.768Z,-5.40
2022-11-20T07:28:00.979Z,-5.32
2022-11-20T07:30:31.889Z,-5.25
2022-11-20T07:33:00.609Z,-5.17
2022-11-20T07:35:31.444Z,-5.12
2022-11-20T07:38:02.161Z,-5.05
2022-11-20T07:40:30.962Z,-4.98
2022-11-20T07:42:59.796Z,-4.90
2022-11-20T07:45:29.276Z,-4.84
2022-11-20T07:47:57.976Z,-4.77
2022-11-20T07:50:28.803Z,-4.67
2022-11-20T07:53:03.803Z,-4.63
2022-11-20T07:55:34.083Z,-4.55
2022-11-20T07:58:02.808Z,-4.48
2022-11-20T08:00:31.459Z,-4.38
2022-11-20T08:03:00.134Z,-4.32
2022-11-20T08:05:29.493Z,-4.29
2022-11-20T08:07:59.725Z,-4.22
2022-11-20T08:10:28.750Z,-4.15
2022-11-20T08:13:15.672Z,-4.07
2022-11-20T08:15:50.561Z,-4.00
2022-11-20T08:18:37.195Z,-3.86
2022-11-20T08:21:07.192Z,-3.39
2022-11-20T08:23:42.339Z,-3.06
2022-11-20T08:26:11.188Z,-2.94
2022-11-20T08:28:39.895Z,-2.88
2022-11-20T08:31:10.182Z,-2.83
2022-11-20T08:33:39.378Z,-2.68
2022-11-20T08:36:09.133Z,-2.57
2022-11-20T08:38:37.821Z,-2.44
2022-11-20T08:41:39.002Z,-2.40
2022-11-20T08:44:09.171Z,-2.31
2022-11-20T08:46:52.400Z,-2.25
2022-11-20T08:49:23.798Z,-2.23
2022-11-20T08:51:55.579Z,-2.17
2022-11-20T08:54:24.462Z,-2.14
2022-11-20T08:56:53.205Z,-2.11
2022-11-20T09:02:12.967Z,-1.99
2022-11-20T09:04:43.436Z,-1.93
2022-11-20T09:07:14.332Z,-1.89
2022-11-20T09:09:44.183Z,-1.86
2022-11-20T09:12:12.986Z,-1.85
2022-11-20T09:14:41.717Z,-1.80
2022-11-20T09:17:14.121Z,-1.79
2022-11-20T09:19:43.308Z,-1.75
2022-11-20T09:22:13.581Z,-1.68
2022-11-20T09:24:49.733Z,-1.60
2022-11-20T09:27:21.278Z,-1.54
2022-11-20T09:29:51.290Z,-1.47
2022-11-20T09:32:22.640Z,-1.37
2022-11-20T09:34:51.393Z,-1.15
2022-11-20T09:37:20.136Z,-0.29
2022-11-20T09:39:49.098Z,1.34
2022-11-20T09:42:38.024Z,2.90
2022-11-20T09:45:24.220Z,4.75
2022-11-20T09:48:09.954Z,5.96
2022-11-20T09:50:44.828Z,6.90
2022-11-20T09:53:22.112Z,7.66
2022-11-20T09:55:51.578Z,8.30
2022-11-20T09:58:30.725Z,8.99
2022-11-20T10:01:10.033Z,9.23
2022-11-20T10:03:46.895Z,9.40
2022-11-20T10:06:22.298Z,9.71
2022-11-20T10:09:02.517Z,9.98
2022-11-20T10:11:45.980Z,10.33
2022-11-20T10:14:28.024Z,10.50
2022-11-20T10:17:09.166Z,10.72
2022-11-20T10:19:56.122Z,11.23
2022-11-20T10:22:45.819Z,11.54
2022-11-20T10:25:18.846Z,11.79
2022-11-20T10:28:00.980Z,11.85
2022-11-20T10:30:31.191Z,12.05
2022-11-20T10:33:05.527Z,12.15
2022-11-20T10:35:40.166Z,12.16
2022-11-20T10:38:17.509Z,12.15
2022-11-20T10:40:49.801Z,11.85
2022-11-20T10:43:32.986Z,11.53
2022-11-20T10:46:06.060Z,11.07
2022-11-20T10:48:37.414Z,11.03
2022-11-20T10:51:19.079Z,10.65
2022-11-20T10:54:10.769Z,10.17
2022-11-20T10:56:48.327Z,10.01
2022-11-20T10:59:45.126Z,9.74
2022-11-20T11:02:21.990Z,9.54
2022-11-20T11:04:52.348Z,9.13
2022-11-20T11:07:25.560Z,8.67
2022-11-20T11:09:56.720Z,8.02
2022-11-20T11:12:29.223Z,7.21
2022-11-20T11:14:58.794Z,6.38
2022-11-20T11:17:41.201Z,5.76
2022-11-20T11:20:18.356Z,5.14
2022-11-20T11:22:49.564Z,4.63
2022-11-20T11:25:25.036Z,4.22
2022-11-20T11:28:00.433Z,3.83
2022-11-20T11:30:41.175Z,3.45
2022-11-20T11:33:13.234Z,3.14
2022-11-20T11:35:51.171Z,2.90
2022-11-20T11:38:30.618Z,2.69
2022-11-20T11:40:59.789Z,2.48
2022-11-20T11:43:51.854Z,2.38
2022-11-20T11:46:33.464Z,2.23
2022-11-20T11:49:16.911Z,2.12
2022-11-20T11:52:00.160Z,1.99
2022-11-20T11:54:35.721Z,1.90
2022-11-20T11:57:13.576Z,1.86
2022-11-20T11:59:59.068Z,1.82
2022-11-20T12:02:50.048Z,1.78
2022-11-20T12:05:24.279Z,1.75
2022-11-20T12:07:57.495Z,1.74
2022-11-20T12:10:41.474Z,1.74
2022-11-20T12:13:23.463Z,1.74
2022-11-20T12:15:52.589Z,1.72
2022-11-20T12:18:23.413Z,1.70
2022-11-20T12:21:12.489Z,1.68
2022-11-20T12:23:53.380Z,1.67
2022-11-20T12:26:36.369Z,1.65
2022-11-20T12:29:13.076Z,1.62
2022-11-20T12:32:20.948Z,1.62
2022-11-20T12:35:11.134Z,1.58
2022-11-20T12:37:54.432Z,1.54
2022-11-20T12:40:36.578Z,1.51
2022-11-20T12:43:35.851Z,1.49
2022-11-20T12:46:23.364Z,1.46
2022-11-20T12:49:24.508Z,1.46
2022-11-20T12:52:09.988Z,1.37
2022-11-20T12:55:02.788Z,1.25
2022-11-20T12:57:50.883Z,1.20
2022-11-20T13:00:23.303Z,1.15
2022-11-20T13:03:27.668Z,1.07
2022-11-20T13:06:06.245Z,1.02
2022-11-20T13:08:37.601Z,0.98
2022-11-20T13:11:15.710Z,0.95
2022-11-20T13:14:00.295Z,0.88
2022-11-20T13:16:35.606Z,0.84
2022-11-20T13:19:12.906Z,0.82
2022-11-20T13:21:50.819Z,0.81
2022-11-20T13:24:27.104Z,0.81
2022-11-20T13:27:05.123Z,0.82
2022-11-20T13:29:38.369Z,0.78
2022-11-20T13:32:17.086Z,0.77
2022-11-20T13:34:56.263Z,0.72
2022-11-20T13:37:37.287Z,0.68
2022-11-20T13:40:23.385Z,0.63
2022-11-20T13:43:05.016Z,0.59
2022-11-20T13:45:34.683Z,0.57
2022-11-20T13:48:19.699Z,0.51
2022-11-20T13:50:59.706Z,0.49
2022-11-20T13:54:10.562Z,0.43
2022-11-20T13:56:57.635Z,0.39
2022-11-20T13:59:49.710Z,0.37
2022-11-20T14:02:21.802Z,0.32
2022-11-20T14:04:54.078Z,0.32
2022-11-20T14:07:29.590Z,0.28
2022-11-20T14:09:58.904Z,0.23
2022-11-20T14:12:31.826Z,0.21
2022-11-20T14:15:01.274Z,0.18
2022-11-20T14:17:33.961Z,0.14
2022-11-20T14:20:23.453Z,0.12
2022-11-20T14:22:52.954Z,0.09
2022-11-20T14:25:23.835Z,0.08
2022-11-20T14:27:55.529Z,0.06
2022-11-20T14:30:26.621Z,0.05
2022-11-20T14:33:01.243Z,0.04
2022-11-20T14:35:34.512Z,-0.04
2022-11-20T14:38:04.532Z,-0.04
2022-11-20T14:40:36.081Z,-0.05
2022-11-20T14:43:19.827Z,-0.09
2022-11-20T14:45:55.828Z,-0.11
2022-11-20T14:48:30.418Z,-0.15
2022-11-20T14:50:59.396Z,-0.13
2022-11-20T14:53:28.169Z,-0.12
2022-11-20T14:56:01.283Z,-0.18
2022-11-20T14:58:33.877Z,-0.18
2022-11-20T15:01:05.344Z,-0.21
2022-11-20T15:03:35.956Z,-0.25
2022-11-20T15:06:05.474Z,-0.23
2022-11-20T15:08:35.155Z,-0.27
2022-11-20T15:11:17.570Z,-0.30
2022-11-20T15:13:46.659Z,-0.34
2022-11-20T15:16:21.166Z,-0.39
2022-11-20T15:18:50.994Z,-0.41
2022-11-20T15:21:23.018Z,-0.46
2022-11-20T15:23:52.696Z,-0.50
2022-11-20T15:26:26.284Z,-0.54
2022-11-20T15:28:56.306Z,-0.54
2022-11-20T15:31:25.553Z,-0.61
2022-11-20T15:33:54.793Z,-0.67
2022-11-20T15:36:23.602Z,-0.68
2022-11-20T15:38:52.523Z,-0.75
2022-11-20T15:41:21.191Z,-0.82
2022-11-20T15:43:50.453Z,-0.89
2022-11-20T15:46:27.774Z,-0.96
2022-11-20T15:49:15.767Z,-1.03
2022-11-20T15:51:48.122Z,-1.08
2022-11-20T15:54:20.786Z,-1.15
2022-11-20T15:56:57.310Z,-1.20
2022-11-20T15:59:26.190Z,-1.26
2022-11-20T16:01:55.402Z,-1.36
2022-11-20T16:04:24.419Z,-1.40
2022-11-20T16:06:53.468Z,-1.44
2022-11-20T16:09:22.101Z,-1.48
2022-11-20T16:11:51.450Z,-1.52
2022-11-20T16:14:38.902Z,-1.57
2022-11-20T16:17:07.599Z,-1.61
2022-11-20T16:19:37.174Z,-1.65
2022-11-20T16:22:05.923Z,-1.71
2022-11-20T16:24:34.903Z,-1.74
2022-11-20T16:27:03.820Z,-1.78
2022-11-20T16:29:32.554Z,-1.83
2022-11-20T16:32:01.271Z,-1.88
2022-11-20T16:34:32.733Z,-1.90
2022-11-20T16:37:02.015Z,-1.96
2022-11-20T16:39:31.327Z,-1.96
2022-11-20T16:42:05.710Z,-2.03
2022-11-20T16:44:34.915Z,-2.06
2022-11-20T16:47:03.819Z,-2.07
2022-11-20T16:49:32.707Z,-2.11
2022-11-20T16:52:02.020Z,-2.14
2022-11-20T16:54:33.579Z,-2.17
2022-11-20T16:57:02.233Z,-2.20
2022-11-20T16:59:32.184Z,-2.21
2022-11-20T17:02:01.221Z,-2.24
2022-11-20T17:04:32.209Z,-2.28
2022-11-20T17:07:07.683Z,-2.31
2022-11-20T17:09:37.140Z,-2.37
2022-11-20T17:12:07.470Z,-2.40
2022-11-20T17:14:36.309Z,-2.42
2022-11-20T17:17:05.859Z,-2.45
2022-11-20T17:19:34.777Z,-2.50
2022-11-20T17:22:04.872Z,-2.51
2022-11-20T17:24:34.662Z,-2.52
2022-11-20T17:27:04.225Z,-2.57
2022-11-20T17:29:37.849Z,-2.57
2022-11-20T17:32:11.886Z,-2.60
2022-11-20T17:34:41.130Z,-2.65
2022-11-20T17:37:10.958Z,-2.66
2022-11-20T17:39:40.425Z,-2.69
2022-11-20T17:42:32.969Z,-2.71
2022-11-20T17:45:02.251Z,-2.78
2022-11-20T17:47:42.647Z,-2.79
2022-11-20T17:50:12.492Z,-2.82
2022-11-20T17:52:45.268Z,-2.88
2022-11-20T17:55:14.331Z,-2.89
2022-11-20T17:57:52.906Z,-2.90
2022-11-20T18:00:22.367Z,-2.94
2022-11-20T18:02:51.284Z,-2.94
2022-11-20T18:05:21.947Z,-2.97
2022-11-20T18:07:54.117Z,-3.01
2022-11-20T18:10:23.653Z,-3.00
2022-11-20T18:12:54.087Z,-3.01
2022-11-20T18:15:23.805Z,-3.06
2022-11-20T18:17:52.761Z,-3.07
2022-11-20T18:20:32.007Z,-3.11
2022-11-20T18:23:02.849Z,-3.14
2022-11-20T18:25:33.957Z,-3.16
2022-11-20T18:28:04.830Z,-3.17
2022-11-20T18:30:36.490Z,-3.20
2022-11-20T18:33:06.541Z,-3.18
2022-11-20T18:35:35.825Z,-3.20
2022-11-20T18:38:04.923Z,-3.23
2022-11-20T18:40:35.856Z,-3.25
2022-11-20T18:43:24.220Z,-3.24
2022-11-20T18:46:05.479Z,-3.27
2022-11-20T18:48:36.314Z,-3.31
2022-11-20T18:51:08.284Z,-3.34
2022-11-20T18:53:40.840Z,-3.34
2022-11-20T18:56:20.003Z,-3.34
2022-11-20T18:58:49.712Z,-3.35
2022-11-20T19:01:21.721Z,-3.38
2022-11-20T19:03:52.400Z,-3.38
2022-11-20T19:06:21.796Z,-3.42
2022-11-20T19:08:51.262Z,-3.44
2022-11-20T19:11:20.147Z,-3.45
2022-11-20T19:13:59.689Z,-3.49
2022-11-20T19:16:38.607Z,-3.46
2022-11-20T19:19:07.780Z,-3.46
2022-11-20T19:21:37.983Z,-3.45
2022-11-20T19:24:08.997Z,-3.41
2022-11-20T19:26:45.858Z,-3.39
2022-11-20T19:29:17.250Z,-3.35
2022-11-20T19:31:48.422Z,-3.34
2022-11-20T19:34:17.437Z,-3.34
2022-11-20T19:36:46.710Z,-3.32
2022-11-20T19:39:16.014Z,-3.32
2022-11-20T19:41:45.012Z,-3.35
2022-11-20T19:44:17.757Z,-3.38
2022-11-20T19:46:47.459Z,-3.36
2022-11-20T19:49:16.857Z,-3.39
2022-11-20T19:51:47.667Z,-3.38
2022-11-20T19:54:18.974Z,-3.36
2022-11-20T19:56:49.239Z,-3.38
2022-11-20T19:59:18.043Z,-3.36
2022-11-20T20:01:47.044Z,-3.36
2022-11-20T20:04:15.857Z,-3.32
2022-11-20T20:06:44.752Z,-3.27
2022-11-20T20:09:18.849Z,-3.23
2022-11-20T20:11:49.088Z,-3.18
2022-11-20T20:14:21.949Z,-3.14
2022-11-20T20:16:51.548Z,-3.07
2022-11-20T20:19:23.826Z,-3.04
2022-11-20T20:21:54.699Z,-3.00
2022-11-20T20:24:28.126Z,-2.94
2022-11-20T20:27:00.489Z,-2.89
2022-11-20T20:29:29.442Z,-2.85
2022-11-20T20:32:00.342Z,-2.79
2022-11-20T20:34:31.718Z,-2.72
2022-11-20T20:37:03.958Z,-2.71
2022-11-20T20:39:34.497Z,-2.66
2022-11-20T20:42:06.747Z,-2.65
2022-11-20T20:44:57.173Z,-2.61
2022-11-20T20:47:31.171Z,-2.58
2022-11-20T20:50:00.415Z,-2.58
2022-11-20T20:52:29.404Z,-2.55
2022-11-20T20:55:00.839Z,-2.54
2022-11-20T20:57:29.986Z,-2.51
2022-11-20T20:59:59.798Z,-2.50
2022-11-20T21:02:28.976Z,-2.47
2022-11-20T21:04:59.597Z,-2.45
2022-11-20T21:07:29.836Z,-2.42
2022-11-20T21:09:59.017Z,-2.42
2022-11-20T21:12:29.999Z,-2.38
2022-11-20T21:14:59.521Z,-2.37
2022-11-20T21:17:29.400Z,-2.38
2022-11-20T21:20:00.128Z,-2.34
2022-11-20T21:22:36.221Z,-2.34
2022-11-20T21:25:09.983Z,-2.34
2022-11-20T21:28:01.163Z,-2.34
2022-11-20T21:30:30.623Z,-2.34
2022-11-20T21:33:02.607Z,-2.35
2022-11-20T21:35:35.123Z,-2.34
2022-11-20T21:38:05.096Z,-2.34
2022-11-20T21:40:36.854Z,-2.35
2022-11-20T21:43:05.885Z,-2.33
2022-11-20T21:45:35.760Z,-2.34
2022-11-20T21:48:06.300Z,-2.35
2022-11-20T21:50:38.645Z,-2.33
2022-11-20T21:53:07.552Z,-2.37
2022-11-20T21:55:36.581Z,-2.38
2022-11-20T21:58:05.631Z,-2.42
2022-11-20T22:00:36.159Z,-2.44
2022-11-20T22:03:06.107Z,-2.44
2022-11-20T22:05:35.563Z,-2.47
2022-11-20T22:08:05.169Z,-2.45
2022-11-20T22:10:36.420Z,-2.47
2022-11-20T22:13:25.423Z,-2.48
2022-11-20T22:16:02.492Z,-2.48
2022-11-20T22:18:31.694Z,-2.50
2022-11-20T22:21:06.000Z,-2.55
2022-11-20T22:23:38.558Z,-2.57
2022-11-20T22:26:09.714Z,-2.61
2022-11-20T22:28:39.308Z,-2.65
2022-11-20T22:31:12.016Z,-2.69
2022-11-20T22:33:41.398Z,-2.73
2022-11-20T22:36:13.069Z,-2.76
2022-11-20T22:38:42.971Z,-2.82
2022-11-20T22:41:13.827Z,-2.89
2022-11-20T22:43:47.294Z,-2.94
2022-11-20T22:46:18.595Z,-2.96
2022-11-20T22:48:52.820Z,-3.01
2022-11-20T22:51:24.346Z,-3.06
2022-11-20T22:53:55.420Z,-3.11
2022-11-20T22:56:24.774Z,-3.17
2022-11-20T22:58:56.270Z,-3.23
2022-11-20T23:01:30.070Z,-3.28
2022-11-20T23:04:05.523Z,-3.29
2022-11-20T23:06:36.665Z,-3.34
2022-11-20T23:09:08.344Z,-3.41
2022-11-20T23:11:37.364Z,-3.42
2022-11-20T23:14:10.384Z,-3.46
2022-11-20T23:16:42.938Z,-3.52
2022-11-20T23:19:14.217Z,-3.53
2022-11-20T23:21:43.502Z,-3.58
2022-11-20T23:24:12.363Z,-3.59
2022-11-20T23:26:44.742Z,-3.62
2022-11-20T23:29:14.874Z,-3.64
2022-11-20T23:31:47.736Z,-3.66
2022-11-20T23:34:19.035Z,-3.66
2022-11-20T23:36:49.875Z,-3.66
2022-11-20T23:39:18.734Z,-3.66
2022-11-20T23:41:47.841Z,-3.69
2022-11-20T23:44:16.901Z,-3.69
2022-11-20T23:46:50.653Z,-3.72
2022-11-20T23:49:20.190Z,-3.72
2022-11-20T23:51:48.898Z,-3.75
2022-11-20T23:54:21.324Z,-3.73
2022-11-20T23:56:50.406Z,-3.75
2022-11-20T23:59:19.527Z,-3.70
